createdAt,value
2022-09-21T00:01:40.577Z,31.77
2022-09-21T00:04:10.744Z,34.33
2022-09-21T00:06:39.511Z,30.63
2022-09-21T00:09:09.457Z,32.70
2022-09-21T00:11:38.763Z,32.58
2022-09-21T00:42:32.167Z,40.00
2022-09-21T00:45:01.263Z,40.90
2022-09-21T00:47:34.223Z,41.87
2022-09-21T00:50:07.668Z,36.97
2022-09-21T00:52:41.743Z,37.87
2022-09-21T00:55:13.615Z,37.00
2022-09-21T00:57:45.165Z,36.80
2022-09-21T01:00:14.789Z,35.55
2022-09-21T01:02:43.654Z,39.03
2022-09-21T01:05:12.408Z,39.70
2022-09-21T01:07:44.637Z,33.90
2022-09-21T01:10:15.027Z,34.27
2022-09-21T01:13:00.055Z,35.08
2022-09-21T01:15:37.024Z,33.37
2022-09-21T01:18:13.164Z,35.33
2022-09-21T01:21:21.325Z,30.77
2022-09-21T01:24:20.023Z,30.40
2022-09-21T01:27:44.157Z,32.17
2022-09-21T01:30:17.192Z,32.13
2022-09-21T01:32:51.450Z,30.37
2022-09-21T01:35:24.052Z,31.60
2022-09-21T01:37:58.510Z,35.20
2022-09-21T01:40:35.690Z,34.13
2022-09-21T01:43:08.175Z,31.30
2022-09-21T01:45:41.947Z,32.47
2022-09-21T01:48:11.267Z,33.87
2022-09-21T01:50:44.984Z,39.80
2022-09-21T01:53:19.540Z,37.73
2022-09-21T01:55:51.646Z,38.80
2022-09-21T01:58:25.743Z,41.93
2022-09-21T02:00:59.377Z,39.87
2022-09-21T02:03:34.365Z,35.43
2022-09-21T02:06:04.052Z,39.90
2022-09-21T02:08:33.240Z,35.50
2022-09-21T02:11:04.303Z,37.10
2022-09-21T02:13:35.483Z,36.67
2022-09-21T02:16:25.432Z,36.80
2022-09-21T02:19:02.629Z,38.70
2022-09-21T02:21:34.361Z,39.77
2022-09-21T02:24:09.651Z,40.53
2022-09-21T02:26:46.556Z,34.53
2022-09-21T02:29:21.362Z,35.70
2022-09-21T02:31:56.015Z,36.00
2022-09-21T02:34:33.379Z,34.30
2022-09-21T02:37:06.973Z,34.83
2022-09-21T02:39:39.841Z,36.40
2022-09-21T02:42:12.614Z,36.57
2022-09-21T02:44:43.853Z,35.27
2022-09-21T02:47:19.908Z,34.57
2022-09-21T02:49:51.941Z,35.70
2022-09-21T02:52:22.565Z,37.60
2022-09-21T02:54:53.194Z,34.67
2022-09-21T02:57:23.933Z,39.70
2022-09-21T02:59:53.460Z,40.20
2022-09-21T03:02:22.985Z,39.13
2022-09-21T03:04:51.544Z,44.47
2022-09-21T03:07:19.769Z,44.90
2022-09-21T03:09:48.022Z,47.07
2022-09-21T03:12:16.251Z,49.40
2022-09-21T03:14:44.686Z,52.07
2022-09-21T03:17:12.923Z,58.13
2022-09-21T03:19:43.135Z,55.73
2022-09-21T03:22:11.552Z,53.70
2022-09-21T03:24:48.696Z,52.33
2022-09-21T03:27:19.845Z,47.70
2022-09-21T03:29:48.395Z,48.42
2022-09-21T03:32:17.213Z,50.57
2022-09-21T03:34:46.843Z,51.00
2022-09-21T03:37:15.090Z,50.97
2022-09-21T03:39:43.451Z,50.27
2022-09-21T03:42:14.051Z,51.00
2022-09-21T03:44:42.413Z,53.20
2022-09-21T03:47:10.810Z,55.17
2022-09-21T03:49:41.382Z,52.97
2022-09-21T03:52:10.967Z,52.78
2022-09-21T03:54:39.206Z,53.13
2022-09-21T03:57:08.596Z,50.10
2022-09-21T03:59:36.816Z,48.50
2022-09-21T04:02:05.176Z,44.83
2022-09-21T04:04:33.487Z,48.93
2022-09-21T04:07:01.747Z,46.63
2022-09-21T04:09:31.755Z,44.47
2022-09-21T04:12:00.151Z,44.23
2022-09-21T04:14:29.150Z,45.07
2022-09-21T04:16:58.131Z,41.87
2022-09-21T04:19:26.466Z,49.07
2022-09-21T04:21:56.073Z,46.10
2022-09-21T04:24:24.508Z,44.10
2022-09-21T04:26:54.088Z,48.47
2022-09-21T04:29:22.337Z,51.53
2022-09-21T04:31:50.527Z,53.57
2022-09-21T04:34:18.733Z,61.97
2022-09-21T04:36:47.261Z,53.00
2022-09-21T04:39:15.526Z,57.13
2022-09-21T04:41:43.784Z,54.30
2022-09-21T04:44:13.350Z,51.97
2022-09-21T04:46:42.480Z,50.63
2022-09-21T04:49:10.799Z,49.97
2022-09-21T04:51:39.137Z,55.37
2022-09-21T04:54:07.833Z,51.60
2022-09-21T04:56:36.029Z,48.67
2022-09-21T04:59:04.526Z,53.37
2022-09-21T05:01:34.294Z,51.37
2022-09-21T05:04:03.115Z,53.37
2022-09-21T05:06:31.639Z,60.97
2022-09-21T05:09:17.990Z,56.00
2022-09-21T05:11:46.578Z,52.83
2022-09-21T05:14:14.992Z,52.23
2022-09-21T05:16:44.692Z,55.37
2022-09-21T05:19:12.942Z,56.87
2022-09-21T05:21:41.115Z,57.40
2022-09-21T05:24:09.829Z,62.40
2022-09-21T05:26:38.291Z,61.00
2022-09-21T05:29:07.080Z,61.17
2022-09-21T05:31:43.649Z,59.07
2022-09-21T05:34:25.950Z,58.37
2022-09-21T05:37:02.011Z,57.77
2022-09-21T05:39:30.706Z,57.90
2022-09-21T05:41:59.283Z,56.97
2022-09-21T05:44:27.953Z,57.33
2022-09-21T05:47:01.008Z,56.93
2022-09-21T05:49:45.864Z,57.60
2022-09-21T05:52:20.024Z,56.63
2022-09-21T05:55:01.354Z,53.80
2022-09-21T05:57:38.482Z,54.03
2022-09-21T06:00:15.221Z,57.93
2022-09-21T06:03:00.032Z,57.17
2022-09-21T06:05:30.139Z,57.67
2022-09-21T06:07:58.516Z,54.83
2022-09-21T06:10:36.039Z,62.83
2022-09-21T06:13:04.297Z,68.63
2022-09-21T06:15:35.180Z,68.50
2022-09-21T06:18:03.421Z,63.87
2022-09-21T06:20:33.026Z,61.50
2022-09-21T06:23:04.279Z,59.83
2022-09-21T06:25:32.571Z,58.87
2022-09-21T06:28:04.453Z,61.87
2022-09-21T06:30:34.677Z,64.17
2022-09-21T06:33:03.522Z,62.13
2022-09-21T06:35:34.833Z,59.28
2022-09-21T06:38:04.719Z,59.25
2022-09-21T06:40:35.397Z,62.92
2022-09-21T06:43:05.733Z,67.75
2022-09-21T06:45:34.443Z,65.35
2022-09-21T06:48:03.107Z,62.53
2022-09-21T06:50:32.636Z,68.78
2022-09-21T06:53:01.288Z,67.95
2022-09-21T06:55:30.042Z,64.60
2022-09-21T06:58:02.937Z,68.40
2022-09-21T07:00:31.682Z,64.70
2022-09-21T07:02:59.966Z,66.22
2022-09-21T07:05:28.486Z,70.70
2022-09-21T07:08:00.439Z,72.32
2022-09-21T07:10:28.765Z,72.07
2022-09-21T07:12:57.151Z,69.43
2022-09-21T07:15:29.997Z,71.40
2022-09-21T07:18:05.945Z,67.20
2022-09-21T07:20:34.371Z,68.88
2022-09-21T07:23:11.568Z,62.92
2022-09-21T07:25:40.058Z,59.85
2022-09-21T07:28:08.386Z,61.05
2022-09-21T07:30:37.540Z,50.55
2022-09-21T07:33:06.423Z,43.72
2022-09-21T07:35:35.745Z,40.95
2022-09-21T07:38:09.102Z,33.83
2022-09-21T07:40:37.415Z,32.85
2022-09-21T07:43:06.560Z,30.88
2022-09-21T07:45:34.980Z,23.42
2022-09-21T07:48:06.741Z,24.95
2022-09-21T07:50:35.266Z,21.58
2022-09-21T07:53:05.536Z,21.38
2022-09-21T07:55:35.192Z,19.38
2022-09-21T07:58:21.001Z,16.65
2022-09-21T08:00:49.432Z,13.07
2022-09-21T08:03:17.669Z,13.75
2022-09-21T08:05:45.948Z,13.00
2022-09-21T08:08:15.572Z,9.10
2022-09-21T08:10:45.227Z,6.55
2022-09-21T08:13:13.466Z,4.22
2022-09-21T08:15:49.755Z,4.68
2022-09-21T08:18:18.806Z,3.20
2022-09-21T08:20:55.753Z,3.05
2022-09-21T08:23:24.345Z,3.17
2022-09-21T08:25:54.221Z,2.47
2022-09-21T08:28:22.446Z,2.15
2022-09-21T08:30:50.686Z,1.50
2022-09-21T08:33:19.120Z,1.25
2022-09-21T08:35:53.750Z,0.50
2022-09-21T08:38:22.385Z,1.13
2022-09-21T08:40:52.327Z,0.93
2022-09-21T08:43:31.471Z,0.55
2022-09-21T08:46:01.857Z,0.65
2022-09-21T08:48:40.188Z,0.40
2022-09-21T08:51:12.086Z,0.60
2022-09-21T08:53:42.458Z,0.60
2022-09-21T08:56:12.088Z,0.43
2022-09-21T08:58:42.175Z,0.70
2022-09-21T09:01:30.726Z,0.30
2022-09-21T09:04:19.600Z,0.80
2022-09-21T09:06:53.630Z,0.30
2022-09-21T09:09:37.532Z,0.40
2022-09-21T09:12:21.663Z,0.35
2022-09-21T09:15:24.425Z,0.60
2022-09-21T09:18:00.866Z,0.35
2022-09-21T09:20:33.749Z,0.38
2022-09-21T09:23:10.784Z,0.38
2022-09-21T09:25:42.862Z,0.40
2022-09-21T09:28:30.226Z,0.40
2022-09-21T09:31:03.580Z,0.40
2022-09-21T09:33:45.045Z,5.60
2022-09-21T09:36:14.483Z,0.80
2022-09-21T09:38:49.144Z,0.30
2022-09-21T09:41:50.679Z,0.28
2022-09-21T09:44:50.178Z,0.30
2022-09-21T09:47:30.679Z,0.40
2022-09-21T09:50:06.479Z,0.40
2022-09-21T09:52:35.205Z,0.98
2022-09-21T09:55:16.815Z,0.38
2022-09-21T09:57:45.338Z,0.30
2022-09-21T10:00:16.460Z,0.30
2022-09-21T10:02:51.164Z,0.57
2022-09-21T10:05:25.023Z,0.30
2022-09-21T10:07:54.353Z,0.40
2022-09-21T10:10:33.481Z,0.30
2022-09-21T10:13:12.555Z,0.82
2022-09-21T10:15:49.968Z,0.50
2022-09-21T10:18:26.539Z,0.32
2022-09-21T10:21:01.350Z,0.55
2022-09-21T10:23:31.533Z,0.30
2022-09-21T10:26:03.286Z,0.40
2022-09-21T10:28:32.226Z,0.50
2022-09-21T10:31:23.791Z,0.43
2022-09-21T10:33:56.358Z,0.50
2022-09-21T10:36:36.739Z,0.85
2022-09-21T10:39:20.139Z,0.40
2022-09-21T10:41:53.892Z,0.47
2022-09-21T10:44:26.788Z,0.40
2022-09-21T10:49:28.380Z,0.30
2022-09-21T10:51:59.343Z,0.30
2022-09-21T10:54:30.494Z,0.50
2022-09-21T10:57:02.682Z,0.60
2022-09-21T10:59:32.796Z,0.30
2022-09-21T11:02:03.167Z,0.57
2022-09-21T11:04:42.777Z,0.40
2022-09-21T11:07:17.525Z,0.40
2022-09-21T11:09:54.505Z,1.00
2022-09-21T11:12:37.115Z,0.50
2022-09-21T11:15:17.311Z,1.00
2022-09-21T11:17:50.855Z,0.30
2022-09-21T11:20:32.417Z,0.20
2022-09-21T11:23:06.494Z,0.30
2022-09-21T11:25:42.324Z,0.30
2022-09-21T11:28:20.631Z,0.25
2022-09-21T11:31:26.712Z,0.20
2022-09-21T11:34:22.185Z,0.20
2022-09-21T11:37:01.961Z,0.28
2022-09-21T11:39:39.390Z,0.50
2022-09-21T11:42:20.444Z,0.30
2022-09-21T11:44:55.932Z,0.50
2022-09-21T11:47:47.996Z,0.30
2022-09-21T11:50:33.969Z,0.28
2022-09-21T11:53:16.311Z,0.30
2022-09-21T11:56:01.960Z,0.40
2022-09-21T11:58:39.770Z,0.35
2022-09-21T12:01:27.455Z,0.68
2022-09-21T12:04:09.252Z,0.40
2022-09-21T12:06:51.036Z,0.68
2022-09-21T12:09:37.321Z,0.30
2022-09-21T12:12:11.187Z,0.32
2022-09-21T12:14:47.963Z,0.40
2022-09-21T12:17:25.509Z,0.50
2022-09-21T12:20:03.012Z,0.40
2022-09-21T12:22:34.696Z,0.40
2022-09-21T12:25:14.729Z,0.55
2022-09-21T12:27:47.536Z,0.50
2022-09-21T12:30:18.780Z,0.40
2022-09-21T12:32:55.716Z,0.50
2022-09-21T12:35:33.667Z,0.40
2022-09-21T12:38:10.507Z,0.38
2022-09-21T12:40:47.636Z,0.35
2022-09-21T12:43:27.597Z,0.47
2022-09-21T12:46:02.990Z,0.77
2022-09-21T12:48:39.038Z,0.55
2022-09-21T12:51:15.605Z,0.40
2022-09-21T12:53:50.870Z,0.45
2022-09-21T12:56:33.396Z,0.68
2022-09-21T12:59:19.332Z,0.75
2022-09-21T13:01:57.190Z,0.60
2022-09-21T13:05:02.368Z,0.68
2022-09-21T13:07:45.351Z,0.65
2022-09-21T13:10:22.125Z,0.30
2022-09-21T13:12:56.399Z,0.65
2022-09-21T13:15:28.822Z,0.90
2022-09-21T13:18:02.318Z,0.63
2022-09-21T13:20:37.851Z,0.60
2022-09-21T13:23:06.763Z,0.75
2022-09-21T13:25:37.892Z,0.52
2022-09-21T13:28:24.035Z,0.55
2022-09-21T13:31:47.442Z,0.20
2022-09-21T13:34:24.825Z,2.25
2022-09-21T13:37:16.890Z,1.10
2022-09-21T13:39:46.088Z,0.20
2022-09-21T13:42:48.271Z,0.20
2022-09-21T13:45:53.145Z,0.30
2022-09-21T13:48:27.257Z,0.57
2022-09-21T13:50:59.631Z,0.32
2022-09-21T13:53:35.539Z,0.40
2022-09-21T13:56:09.914Z,1.58
2022-09-21T13:58:44.649Z,1.30
2022-09-21T14:01:45.033Z,0.30
2022-09-21T14:04:21.466Z,0.73
2022-09-21T14:06:52.352Z,0.40
2022-09-21T14:09:25.703Z,0.60
2022-09-21T14:11:59.884Z,0.50
2022-09-21T14:14:32.861Z,0.30
2022-09-21T14:17:03.776Z,0.20
2022-09-21T14:20:07.564Z,0.73
2022-09-21T14:22:38.895Z,0.20
2022-09-21T14:25:32.419Z,0.35
2022-09-21T14:28:11.984Z,0.20
2022-09-21T14:30:42.808Z,0.20
2022-09-21T14:33:23.660Z,0.20
2022-09-21T14:35:53.103Z,0.20
2022-09-21T14:38:25.271Z,0.10
2022-09-21T14:40:57.201Z,0.55
2022-09-21T14:43:29.755Z,0.20
2022-09-21T14:46:32.259Z,0.20
2022-09-21T14:49:15.089Z,0.20
2022-09-21T14:52:04.326Z,0.30
2022-09-21T14:54:49.446Z,0.20
2022-09-21T14:57:37.324Z,0.40
2022-09-21T15:00:21.132Z,0.22
2022-09-21T15:02:57.488Z,0.30
2022-09-21T15:05:34.277Z,0.28
2022-09-21T15:08:42.352Z,0.25
2022-09-21T15:11:17.745Z,0.25
2022-09-21T15:14:15.699Z,0.20
2022-09-21T15:16:47.255Z,0.20
2022-09-21T15:19:27.109Z,0.20
2022-09-21T15:21:58.282Z,0.17
2022-09-21T15:24:29.583Z,0.20
2022-09-21T15:27:06.945Z,0.10
2022-09-21T15:29:35.793Z,0.32
2022-09-21T15:32:04.760Z,0.20
2022-09-21T15:34:33.143Z,0.30
2022-09-21T15:37:13.520Z,0.30
2022-09-21T15:39:41.847Z,0.43
2022-09-21T15:42:23.143Z,0.35
2022-09-21T15:44:55.387Z,0.40
2022-09-21T15:47:26.042Z,0.35
2022-09-21T15:49:56.964Z,0.30
2022-09-21T15:52:33.027Z,0.30
2022-09-21T15:55:09.356Z,0.15
2022-09-21T15:57:40.655Z,0.30
2022-09-21T16:00:20.028Z,0.20
2022-09-21T16:03:07.482Z,0.20
2022-09-21T16:05:45.674Z,0.30
2022-09-21T16:08:30.348Z,0.20
2022-09-21T16:11:17.339Z,0.20
2022-09-21T16:14:04.581Z,0.20
2022-09-21T16:16:33.408Z,0.20
2022-09-21T16:19:01.709Z,0.20
2022-09-21T16:21:33.841Z,0.20
2022-09-21T16:24:17.960Z,0.40
2022-09-21T16:26:57.770Z,0.20
2022-09-21T16:29:27.741Z,0.30
2022-09-21T16:32:23.431Z,0.20
2022-09-21T16:34:53.199Z,0.20
2022-09-21T16:37:29.356Z,0.47
2022-09-21T16:40:00.683Z,0.32
2022-09-21T16:42:32.876Z,0.30
2022-09-21T16:45:01.999Z,0.32
2022-09-21T16:47:30.600Z,0.38
2022-09-21T16:50:01.853Z,0.30
2022-09-21T16:52:31.572Z,0.73
2022-09-21T16:55:01.229Z,0.30
2022-09-21T16:57:29.531Z,0.20
2022-09-21T16:59:58.113Z,0.45
2022-09-21T17:02:26.545Z,0.32
2022-09-21T17:04:54.822Z,0.20
2022-09-21T17:07:23.006Z,0.22
2022-09-21T17:09:51.237Z,0.57
2022-09-21T17:12:22.172Z,0.40
2022-09-21T17:14:51.726Z,0.20
2022-09-21T17:17:23.626Z,0.30
2022-09-21T17:19:54.292Z,0.20
2022-09-21T17:22:23.187Z,0.30
2022-09-21T17:24:54.001Z,0.30
2022-09-21T17:27:26.709Z,0.30
2022-09-21T17:29:56.484Z,0.30
2022-09-21T17:32:25.634Z,0.20
2022-09-21T17:34:58.881Z,0.20
2022-09-21T17:37:27.315Z,0.30
2022-09-21T17:39:55.651Z,0.30
2022-09-21T17:42:26.202Z,0.30
2022-09-21T17:45:12.468Z,0.30
2022-09-21T17:47:41.811Z,0.50
2022-09-21T17:50:23.069Z,0.40
2022-09-21T17:53:09.672Z,0.30
2022-09-21T17:55:39.158Z,0.40
2022-09-21T17:58:25.158Z,0.32
2022-09-21T18:01:01.374Z,0.30
2022-09-21T18:03:31.276Z,0.70
2022-09-21T18:06:00.836Z,0.40
2022-09-21T18:08:30.622Z,0.50
2022-09-21T18:11:07.563Z,0.40
2022-09-21T18:13:49.136Z,0.60
2022-09-21T18:16:30.882Z,0.40
2022-09-21T18:19:07.495Z,0.30
2022-09-21T18:21:41.826Z,0.52
2022-09-21T18:24:20.291Z,0.50
2022-09-21T18:26:50.861Z,0.50
2022-09-21T18:29:39.351Z,0.30
2022-09-21T18:32:28.468Z,0.60
2022-09-21T18:35:29.130Z,0.50
2022-09-21T18:38:10.084Z,0.60
2022-09-21T18:40:46.878Z,0.65
2022-09-21T18:43:28.092Z,0.73
2022-09-21T18:46:02.826Z,0.77
2022-09-21T18:48:52.602Z,0.50
2022-09-21T18:51:28.657Z,0.85
2022-09-21T18:53:58.561Z,0.60
2022-09-21T18:56:29.282Z,1.20
2022-09-21T18:58:58.310Z,0.95
2022-09-21T19:01:33.051Z,0.90
2022-09-21T19:04:02.273Z,1.33
2022-09-21T19:06:42.610Z,1.40
2022-09-21T19:09:21.226Z,0.90
2022-09-21T19:11:57.478Z,1.17
2022-09-21T19:14:34.634Z,1.33
2022-09-21T19:17:20.799Z,1.00
2022-09-21T19:19:59.668Z,1.15
2022-09-21T19:22:39.689Z,1.02
2022-09-21T19:25:16.763Z,1.10
2022-09-21T19:27:52.923Z,0.80
2022-09-21T19:30:21.579Z,1.08
2022-09-21T19:32:53.153Z,1.08
2022-09-21T19:35:24.675Z,1.40
2022-09-21T19:37:54.332Z,1.05
2022-09-21T19:40:25.568Z,1.10
2022-09-21T19:43:14.217Z,1.50
2022-09-21T19:45:52.377Z,2.00
2022-09-21T19:48:26.827Z,1.30
2022-09-21T19:50:57.356Z,1.40
2022-09-21T19:53:43.662Z,1.65
2022-09-21T19:56:32.208Z,2.38
2022-09-21T19:59:20.553Z,2.25
2022-09-21T20:01:53.178Z,2.80
2022-09-21T20:04:28.035Z,2.63
2022-09-21T20:07:03.249Z,1.30
2022-09-21T20:09:38.234Z,2.00
2022-09-21T20:12:15.255Z,1.85
2022-09-21T20:14:49.394Z,2.90
2022-09-21T20:17:22.188Z,3.00
2022-09-21T20:19:58.046Z,3.80
2022-09-21T20:22:34.778Z,2.97
2022-09-21T20:25:08.029Z,3.38
2022-09-21T20:27:40.804Z,3.58
2022-09-21T20:30:11.881Z,4.68
2022-09-21T20:32:43.014Z,3.88
2022-09-21T20:35:17.216Z,4.40
2022-09-21T20:37:47.015Z,3.90
2022-09-21T20:40:16.395Z,4.18
2022-09-21T20:42:45.111Z,4.55
2022-09-21T20:45:14.678Z,4.50
2022-09-21T20:47:42.950Z,4.53
2022-09-21T20:50:13.705Z,4.88
2022-09-21T20:52:43.183Z,5.13
2022-09-21T20:55:14.001Z,5.13
2022-09-21T20:57:42.474Z,5.25
2022-09-21T21:00:13.230Z,6.43
2022-09-21T21:02:42.096Z,4.85
2022-09-21T21:05:11.499Z,4.93
2022-09-21T21:07:42.531Z,4.97
2022-09-21T21:10:14.584Z,5.50
2022-09-21T21:12:43.613Z,4.95
2022-09-21T21:15:13.340Z,5.38
2022-09-21T21:17:42.811Z,6.43
2022-09-21T21:20:11.696Z,6.05
2022-09-21T21:22:42.228Z,6.60
2022-09-21T21:25:11.124Z,5.85
2022-09-21T21:27:39.370Z,5.63
2022-09-21T21:30:09.454Z,5.95
2022-09-21T21:32:38.319Z,6.13
2022-09-21T21:35:08.031Z,5.18
2022-09-21T21:37:36.229Z,5.28
2022-09-21T21:40:06.946Z,5.47
2022-09-21T21:42:35.215Z,6.20
2022-09-21T21:45:03.411Z,4.85
2022-09-21T21:47:40.509Z,5.40
2022-09-21T21:50:11.375Z,6.28
2022-09-21T21:52:40.740Z,6.57
2022-09-21T21:55:11.027Z,6.47
2022-09-21T21:57:39.236Z,6.13
2022-09-21T22:00:10.148Z,6.78
2022-09-21T22:02:38.505Z,6.95
2022-09-21T22:05:07.701Z,6.30
2022-09-21T22:07:35.926Z,6.85
2022-09-21T22:10:04.337Z,7.30
2022-09-21T22:12:34.530Z,6.88
2022-09-21T22:15:03.782Z,9.95
2022-09-21T22:17:32.268Z,8.95
2022-09-21T22:20:00.459Z,9.90
2022-09-21T22:22:28.682Z,8.65
2022-09-21T22:24:56.904Z,9.23
2022-09-21T22:27:25.719Z,11.48
2022-09-21T22:29:55.268Z,9.77
2022-09-21T22:32:23.477Z,10.88
2022-09-21T22:34:51.690Z,12.05
2022-09-21T22:37:21.067Z,12.60
2022-09-21T22:39:49.300Z,11.13
2022-09-21T22:42:17.548Z,13.57
2022-09-21T22:44:45.842Z,13.70
2022-09-21T22:47:15.461Z,12.15
2022-09-21T22:49:43.678Z,12.65
2022-09-21T22:52:11.936Z,14.02
2022-09-21T22:54:40.166Z,13.98
2022-09-21T22:57:08.445Z,13.57
2022-09-21T22:59:36.697Z,13.65
2022-09-21T23:02:08.510Z,14.02
2022-09-21T23:04:38.158Z,16.08
2022-09-21T23:07:06.432Z,15.45
2022-09-21T23:09:34.655Z,16.10
2022-09-21T23:12:03.221Z,18.02
2022-09-21T23:14:31.458Z,17.17
2022-09-21T23:16:59.720Z,16.80
2022-09-21T23:19:27.959Z,17.25
2022-09-21T23:21:57.660Z,18.10
2022-09-21T23:24:25.882Z,18.08
2022-09-21T23:26:54.295Z,19.27
2022-09-21T23:29:22.548Z,20.42
2022-09-21T23:31:51.107Z,19.63
2022-09-21T23:34:19.462Z,19.90
2022-09-21T23:36:47.749Z,21.85
2022-09-21T23:39:17.452Z,20.55
2022-09-21T23:44:14.821Z,20.55
2022-09-21T23:46:43.210Z,20.38
2022-09-21T23:49:11.918Z,22.00
2022-09-21T23:51:40.874Z,22.17
2022-09-21T23:54:09.308Z,22.02
2022-09-21T23:56:39.014Z,22.55
2022-09-21T23:59:07.197Z,26.02
